Terminal Aerodrome Forecast
Issued by NWS Lake Charles, LA

Home | Current Version | Previous Version | Text Only | Print | Product List | Glossary On
Versions: 1 2 3 4 5 6 7 8 9 10 11 12 13 14 15
000
FTUS44 KLCH 011122
TAFLCH
TAF
KLCH 011122Z 0112/0212 VRB03KT P6SM SCT025 BKN150
     FM011500 12007KT P6SM BKN250
     FM011800 18006KT P6SM SHRA SCT035 BKN250
      TEMPO 0119/0123 4SM TSRA SCT020 BKN035CB
     FM020100 16004KT P6SM FEW040 BKN200 PROB30 0202/0208 -RA BKN050
      OVC100=

USA.gov is the U.S. government's official web portal to all federal, state and local government web resources and services.